Aérodrome :
LOGIN :

S'inscrire | Disclaimer

   EN    FR    IT 

 










Légende :    VFR   VFR Marginal   IFR   IFR Intensif   IFR Très Intensif
Visi : 
Plafond : 
>= 8 km
>= 3000ft
5 à 8 km
1000 à 3000 ft
1500m à 5 km
500 à 1000 ft
800 à 1500m
200 à 500 ft
< 800m
< 200 ft
Symboles :   Orages  Brouillard  Fortes neiges  Fortes précipitations  Vent > 20 kt
SIGMETs :   Divers  Orages  Givrage  Turbulence  Onde Orograph.  Cendres Volcan.







- Altitude de l'aérodrome : 228 ft
- Code IATA : OPO


LPPR - Porto Fr. Sa Carneiro

DERNIER METAR :
  • 180300Z 21004KT 180V240 9999 FEW008 SCT014 BKN036 15/14 Q1012

METARs EXPIRÉS :
  • 180230Z 23003KT 200V260 9999 FEW005 BKN007 14/14 Q1012
  • 180200Z VRB01KT 9999 SCT007 14/13 Q1012
  • 180130Z 23004KT 200V270 9999 SCT008 BKN049 14/12 Q1012
  • 180100Z 22007KT 170V270 9999 -RA SCT006 BKN025 14/14 Q1012
  • 180030Z 25003KT 180V330 5000 -RA BR FEW008 SCT040 14/14 Q1012

TAF TAF LPPR
Valide du 18 à 00h jusqu'au 19 à 00h UTC


172330Z 1800/1824 17012KT 9999 SCT018 SCT030
TEMPO 1800/1809 5000 -RA SCT006 BKN018
PROB30
TEMPO 1800/1809 3000 TSRA BKN004 SCT020CB
BECMG 1804/1806 13007KT
BECMG 1809/1812 21007KT
BECMG 1818/1820 11005KT
TEMPO 1821/1824 6000 -RA SCT008 BKN040
Pas de NOTAMs connus pour ce terrain.



MET'MAP, la Météo Aéronautique d'un coup d'oeil ! - Copyright ORBIFLY Décembre 2007 - Disclaimer

ORBIFLY MET'MAP TEAM :

Programmation & Développement : Alexandra Zaïnal
Conception & Développement : Baudouin d'Aumeries
Co-Programmation & Développement : Marc-Olivier Méhu
Soutien technique & logistique : Manuel Goepfert

Contact : metmap@orbifly.com




SOURCES & CREDITS :

   NOAA